Malaysia Virtual Airlines Airport Information Service

Chiang Mai

ICAO: VTCC Country: Thailand
Latitude: 18.7667 Longitude: 98.9667
Latest Arrival : AK854 (WMKK-VTCC) Latest Departure : AK857 (VTCC-WMKK)


WX CaptureLIVE
Data provided by noaa.gov | Fetched at 17:42:06

METAR : VTCC 261700Z VRB01KT 9999 BKN035 25/23 Q1005 NOSIG

TAF : VTCC 261100Z 2612/2718 22007KT 9999 BKN035 BECMG 2618/2620 36005KT BECMG 2700/2702 19005KT TEMPO 2706/2709 26015G25KT 4000 TSRA FEW025CB BKN030


Runway Data for VTCC
Data provided by openaviationdata.com

Runway ID Mag Var Hdg Length Elevation Surface ILS Freq ILS Id ILS Slope
18 0 180° 10104 ft 1036 ft Asphalt -- -- --
36 0 10104 ft 1036 ft Asphalt 109.9 ICMA 3

Chiang Mai, Thailand
Use only for reference purposes



Not for navigational purposes.